sensor_id;sensor_type;location;lat;lon;timestamp;temperature;humidity
12089;DHT22;6107;49.078;8.578;2023-12-20T00:00:20;5.90;99.90
12089;DHT22;6107;49.078;8.578;2023-12-20T00:02:46;5.90;99.90
12089;DHT22;6107;49.078;8.578;2023-12-20T00:05:13;5.90;99.90
12089;DHT22;6107;49.078;8.578;2023-12-20T00:07:39;5.90;99.90
12089;DHT22;6107;49.078;8.578;2023-12-20T00:10:05;5.80;99.90
12089;DHT22;6107;49.078;8.578;2023-12-20T00:12:31;5.90;99.90
12089;DHT22;6107;49.078;8.578;2023-12-20T00:14:57;5.90;99.90
12089;DHT22;6107;49.078;8.578;2023-12-20T00:17:23;5.90;99.90
12089;DHT22;6107;49.078;8.578;2023-12-20T00:19:48;5.80;99.90
12089;DHT22;6107;49.078;8.578;2023-12-20T00:22:14;5.80;99.90
12089;DHT22;6107;49.078;8.578;2023-12-20T00:24:39;5.80;99.90
12089;DHT22;6107;49.078;8.578;2023-12-20T00:27:05;5.90;99.90
12089;DHT22;6107;49.078;8.578;2023-12-20T00:29:30;5.80;99.90
12089;DHT22;6107;49.078;8.578;2023-12-20T00:31:56;5.80;99.90
12089;DHT22;6107;49.078;8.578;2023-12-20T00:34:22;5.80;99.90
12089;DHT22;6107;49.078;8.578;2023-12-20T00:36:47;5.80;99.90
12089;DHT22;6107;49.078;8.578;2023-12-20T00:39:13;5.80;99.90
12089;DHT22;6107;49.078;8.578;2023-12-20T00:41:39;5.80;99.90
12089;DHT22;6107;49.078;8.578;2023-12-20T00:44:05;5.80;99.90
12089;DHT22;6107;49.078;8.578;2023-12-20T00:46:30;5.80;99.90
12089;DHT22;6107;49.078;8.578;2023-12-20T00:48:56;5.80;99.90
12089;DHT22;6107;49.078;8.578;2023-12-20T00:51:22;5.80;99.90
12089;DHT22;6107;49.078;8.578;2023-12-20T00:53:50;5.80;99.90
12089;DHT22;6107;49.078;8.578;2023-12-20T00:56:20;5.80;99.90
12089;DHT22;6107;49.078;8.578;2023-12-20T00:58:45;5.80;99.90
12089;DHT22;6107;49.078;8.578;2023-12-20T01:01:11;5.80;99.90
12089;DHT22;6107;49.078;8.578;2023-12-20T01:03:37;5.80;99.90
12089;DHT22;6107;49.078;8.578;2023-12-20T01:06:02;5.80;99.90
12089;DHT22;6107;49.078;8.578;2023-12-20T01:08:29;5.80;99.90
12089;DHT22;6107;49.078;8.578;2023-12-20T01:10:55;5.80;99.90
12089;DHT22;6107;49.078;8.578;2023-12-20T01:13:21;5.80;99.90
12089;DHT22;6107;49.078;8.578;2023-12-20T01:15:46;5.80;99.90
12089;DHT22;6107;49.078;8.578;2023-12-20T01:18:13;5.80;99.90
12089;DHT22;6107;49.078;8.578;2023-12-20T01:20:39;5.80;99.90
12089;DHT22;6107;49.078;8.578;2023-12-20T01:23:04;5.80;99.90
12089;DHT22;6107;49.078;8.578;2023-12-20T01:25:30;5.90;99.90
12089;DHT22;6107;49.078;8.578;2023-12-20T01:27:56;5.90;99.90
12089;DHT22;6107;49.078;8.578;2023-12-20T01:30:21;5.90;99.90
12089;DHT22;6107;49.078;8.578;2023-12-20T01:32:47;5.90;99.90
12089;DHT22;6107;49.078;8.578;2023-12-20T01:35:12;5.90;99.90
12089;DHT22;6107;49.078;8.578;2023-12-20T01:37:38;5.80;99.90
12089;DHT22;6107;49.078;8.578;2023-12-20T01:40:04;5.80;99.90
12089;DHT22;6107;49.078;8.578;2023-12-20T01:42:30;5.90;99.90
12089;DHT22;6107;49.078;8.578;2023-12-20T01:44:56;5.90;99.90
12089;DHT22;6107;49.078;8.578;2023-12-20T01:47:21;5.90;99.90
12089;DHT22;6107;49.078;8.578;2023-12-20T01:49:48;6.00;99.90
12089;DHT22;6107;49.078;8.578;2023-12-20T01:52:14;5.90;99.90
12089;DHT22;6107;49.078;8.578;2023-12-20T01:54:40;5.90;99.90
12089;DHT22;6107;49.078;8.578;2023-12-20T01:57:08;5.90;99.90
12089;DHT22;6107;49.078;8.578;2023-12-20T01:59:34;5.90;99.90
12089;DHT22;6107;49.078;8.578;2023-12-20T02:02:00;5.90;99.90
12089;DHT22;6107;49.078;8.578;2023-12-20T02:04:26;5.90;99.90
12089;DHT22;6107;49.078;8.578;2023-12-20T02:06:53;5.90;99.90
12089;DHT22;6107;49.078;8.578;2023-12-20T02:09:19;5.90;99.90
12089;DHT22;6107;49.078;8.578;2023-12-20T02:11:44;5.90;99.90
12089;DHT22;6107;49.078;8.578;2023-12-20T02:14:10;6.00;99.90
12089;DHT22;6107;49.078;8.578;2023-12-20T02:16:36;6.00;99.90
12089;DHT22;6107;49.078;8.578;2023-12-20T02:19:04;5.90;99.90
12089;DHT22;6107;49.078;8.578;2023-12-20T02:21:32;6.00;99.90
12089;DHT22;6107;49.078;8.578;2023-12-20T02:23:59;5.90;99.90
12089;DHT22;6107;49.078;8.578;2023-12-20T02:26:24;5.90;99.90
12089;DHT22;6107;49.078;8.578;2023-12-20T02:28:50;5.90;99.90
12089;DHT22;6107;49.078;8.578;2023-12-20T02:31:16;5.90;99.90
12089;DHT22;6107;49.078;8.578;2023-12-20T02:33:41;5.90;99.90
12089;DHT22;6107;49.078;8.578;2023-12-20T02:36:07;5.90;99.90
12089;DHT22;6107;49.078;8.578;2023-12-20T02:38:33;6.00;99.90
12089;DHT22;6107;49.078;8.578;2023-12-20T02:40:59;6.00;99.90
12089;DHT22;6107;49.078;8.578;2023-12-20T02:43:25;6.00;99.90
12089;DHT22;6107;49.078;8.578;2023-12-20T02:45:50;6.00;99.90
12089;DHT22;6107;49.078;8.578;2023-12-20T02:48:16;6.00;99.90
12089;DHT22;6107;49.078;8.578;2023-12-20T02:50:42;5.90;99.90
12089;DHT22;6107;49.078;8.578;2023-12-20T02:53:07;5.90;99.90
12089;DHT22;6107;49.078;8.578;2023-12-20T02:55:33;5.90;99.90
12089;DHT22;6107;49.078;8.578;2023-12-20T02:57:58;5.90;99.90
12089;DHT22;6107;49.078;8.578;2023-12-20T03:00:24;5.90;99.90
12089;DHT22;6107;49.078;8.578;2023-12-20T03:02:50;5.90;99.90
12089;DHT22;6107;49.078;8.578;2023-12-20T03:05:15;6.00;99.90
12089;DHT22;6107;49.078;8.578;2023-12-20T03:07:41;5.90;99.90
12089;DHT22;6107;49.078;8.578;2023-12-20T03:10:08;5.90;99.90
12089;DHT22;6107;49.078;8.578;2023-12-20T03:12:34;5.90;99.90
12089;DHT22;6107;49.078;8.578;2023-12-20T03:15:00;5.90;99.90
12089;DHT22;6107;49.078;8.578;2023-12-20T03:17:26;5.90;99.90
12089;DHT22;6107;49.078;8.578;2023-12-20T03:19:51;6.00;99.90
12089;DHT22;6107;49.078;8.578;2023-12-20T03:22:17;5.90;99.90
12089;DHT22;6107;49.078;8.578;2023-12-20T03:24:42;5.90;99.90
12089;DHT22;6107;49.078;8.578;2023-12-20T03:27:08;5.90;99.90
12089;DHT22;6107;49.078;8.578;2023-12-20T03:29:33;5.90;99.90
12089;DHT22;6107;49.078;8.578;2023-12-20T03:31:59;5.90;99.90
12089;DHT22;6107;49.078;8.578;2023-12-20T03:34:26;5.90;99.90
12089;DHT22;6107;49.078;8.578;2023-12-20T03:36:51;5.90;99.90
12089;DHT22;6107;49.078;8.578;2023-12-20T03:39:17;5.90;99.90
12089;DHT22;6107;49.078;8.578;2023-12-20T03:41:42;5.90;99.90
12089;DHT22;6107;49.078;8.578;2023-12-20T03:44:08;5.90;99.90
12089;DHT22;6107;49.078;8.578;2023-12-20T03:46:34;6.00;99.90
12089;DHT22;6107;49.078;8.578;2023-12-20T03:48:59;5.90;99.90
12089;DHT22;6107;49.078;8.578;2023-12-20T03:51:25;6.00;99.90
12089;DHT22;6107;49.078;8.578;2023-12-20T03:53:50;6.00;99.90
12089;DHT22;6107;49.078;8.578;2023-12-20T03:56:16;5.90;99.90
12089;DHT22;6107;49.078;8.578;2023-12-20T03:58:41;5.90;99.90
12089;DHT22;6107;49.078;8.578;2023-12-20T04:01:10;5.90;99.90
12089;DHT22;6107;49.078;8.578;2023-12-20T04:03:38;6.00;99.90
12089;DHT22;6107;49.078;8.578;2023-12-20T04:06:03;6.00;99.90
12089;DHT22;6107;49.078;8.578;2023-12-20T04:08:29;6.00;99.90
12089;DHT22;6107;49.078;8.578;2023-12-20T04:10:54;6.00;99.90
12089;DHT22;6107;49.078;8.578;2023-12-20T04:13:20;6.00;99.90
12089;DHT22;6107;49.078;8.578;2023-12-20T04:15:46;6.00;99.90
12089;DHT22;6107;49.078;8.578;2023-12-20T04:18:11;6.00;99.90
12089;DHT22;6107;49.078;8.578;2023-12-20T04:20:37;6.00;99.90
12089;DHT22;6107;49.078;8.578;2023-12-20T04:23:03;6.00;99.90
12089;DHT22;6107;49.078;8.578;2023-12-20T04:25:28;6.00;99.90
12089;DHT22;6107;49.078;8.578;2023-12-20T04:27:54;6.00;99.90
12089;DHT22;6107;49.078;8.578;2023-12-20T04:30:19;5.90;99.90
12089;DHT22;6107;49.078;8.578;2023-12-20T04:32:45;6.00;99.90
12089;DHT22;6107;49.078;8.578;2023-12-20T04:35:10;6.00;99.90
12089;DHT22;6107;49.078;8.578;2023-12-20T04:37:36;6.00;99.90
12089;DHT22;6107;49.078;8.578;2023-12-20T04:40:02;6.00;99.90
12089;DHT22;6107;49.078;8.578;2023-12-20T04:42:28;6.00;99.90
12089;DHT22;6107;49.078;8.578;2023-12-20T04:44:53;6.00;99.90
12089;DHT22;6107;49.078;8.578;2023-12-20T04:47:19;6.00;99.90
12089;DHT22;6107;49.078;8.578;2023-12-20T04:49:45;6.00;99.90
12089;DHT22;6107;49.078;8.578;2023-12-20T04:52:10;6.10;99.90
12089;DHT22;6107;49.078;8.578;2023-12-20T04:54:36;6.10;99.90
12089;DHT22;6107;49.078;8.578;2023-12-20T04:57:02;6.10;99.90
12089;DHT22;6107;49.078;8.578;2023-12-20T04:59:28;6.00;99.90
12089;DHT22;6107;49.078;8.578;2023-12-20T05:01:53;6.00;99.90
12089;DHT22;6107;49.078;8.578;2023-12-20T05:04:19;6.00;99.90
12089;DHT22;6107;49.078;8.578;2023-12-20T05:06:44;6.00;99.90
12089;DHT22;6107;49.078;8.578;2023-12-20T05:09:10;6.00;99.90
12089;DHT22;6107;49.078;8.578;2023-12-20T05:11:35;6.00;99.90
12089;DHT22;6107;49.078;8.578;2023-12-20T05:14:01;6.00;99.90
12089;DHT22;6107;49.078;8.578;2023-12-20T05:16:27;6.00;99.90
12089;DHT22;6107;49.078;8.578;2023-12-20T05:18:52;6.00;99.90
12089;DHT22;6107;49.078;8.578;2023-12-20T05:21:18;6.00;99.90
12089;DHT22;6107;49.078;8.578;2023-12-20T05:23:44;6.00;99.90
12089;DHT22;6107;49.078;8.578;2023-12-20T05:26:09;6.00;99.90
12089;DHT22;6107;49.078;8.578;2023-12-20T05:28:35;5.90;99.90
12089;DHT22;6107;49.078;8.578;2023-12-20T05:31:00;6.00;99.90
12089;DHT22;6107;49.078;8.578;2023-12-20T05:33:26;6.00;99.90
12089;DHT22;6107;49.078;8.578;2023-12-20T05:35:52;6.00;99.90
12089;DHT22;6107;49.078;8.578;2023-12-20T05:38:17;6.00;99.90
12089;DHT22;6107;49.078;8.578;2023-12-20T05:40:43;6.00;99.90
12089;DHT22;6107;49.078;8.578;2023-12-20T05:43:09;6.00;99.90
12089;DHT22;6107;49.078;8.578;2023-12-20T05:45:34;6.00;99.90
12089;DHT22;6107;49.078;8.578;2023-12-20T05:48:00;6.00;99.90
12089;DHT22;6107;49.078;8.578;2023-12-20T05:50:25;6.00;99.90
12089;DHT22;6107;49.078;8.578;2023-12-20T05:52:51;6.00;99.90
12089;DHT22;6107;49.078;8.578;2023-12-20T05:55:17;6.00;99.90
12089;DHT22;6107;49.078;8.578;2023-12-20T05:57:42;6.00;99.90
12089;DHT22;6107;49.078;8.578;2023-12-20T06:00:09;6.10;99.90
12089;DHT22;6107;49.078;8.578;2023-12-20T06:02:35;6.10;99.90
12089;DHT22;6107;49.078;8.578;2023-12-20T06:05:04;6.00;99.90
12089;DHT22;6107;49.078;8.578;2023-12-20T06:07:29;6.10;99.90
12089;DHT22;6107;49.078;8.578;2023-12-20T06:09:55;6.10;99.90
12089;DHT22;6107;49.078;8.578;2023-12-20T06:12:20;6.00;99.90
12089;DHT22;6107;49.078;8.578;2023-12-20T06:14:46;6.00;99.90
12089;DHT22;6107;49.078;8.578;2023-12-20T06:17:12;6.00;99.90
12089;DHT22;6107;49.078;8.578;2023-12-20T06:19:37;6.10;99.90
12089;DHT22;6107;49.078;8.578;2023-12-20T06:22:03;6.10;99.90
12089;DHT22;6107;49.078;8.578;2023-12-20T06:24:28;6.10;99.90
12089;DHT22;6107;49.078;8.578;2023-12-20T06:26:55;6.20;99.90
12089;DHT22;6107;49.078;8.578;2023-12-20T06:29:20;6.20;99.90
12089;DHT22;6107;49.078;8.578;2023-12-20T06:31:46;6.20;99.90
12089;DHT22;6107;49.078;8.578;2023-12-20T06:34:12;6.20;99.90
12089;DHT22;6107;49.078;8.578;2023-12-20T06:36:37;6.20;99.90
12089;DHT22;6107;49.078;8.578;2023-12-20T06:39:03;6.20;99.90
12089;DHT22;6107;49.078;8.578;2023-12-20T06:41:30;6.20;99.90
12089;DHT22;6107;49.078;8.578;2023-12-20T06:43:55;6.20;99.90
12089;DHT22;6107;49.078;8.578;2023-12-20T06:46:22;6.20;99.90
12089;DHT22;6107;49.078;8.578;2023-12-20T06:48:47;6.20;99.90
12089;DHT22;6107;49.078;8.578;2023-12-20T06:51:15;6.10;99.90
12089;DHT22;6107;49.078;8.578;2023-12-20T06:53:41;6.20;99.90
12089;DHT22;6107;49.078;8.578;2023-12-20T06:56:07;6.20;99.90
12089;DHT22;6107;49.078;8.578;2023-12-20T06:58:32;6.20;99.90
12089;DHT22;6107;49.078;8.578;2023-12-20T07:00:58;6.20;99.90
12089;DHT22;6107;49.078;8.578;2023-12-20T07:03:24;6.20;99.90
12089;DHT22;6107;49.078;8.578;2023-12-20T07:05:49;6.10;99.90
12089;DHT22;6107;49.078;8.578;2023-12-20T07:08:15;6.00;99.90
12089;DHT22;6107;49.078;8.578;2023-12-20T07:10:41;6.00;99.90
12089;DHT22;6107;49.078;8.578;2023-12-20T07:13:10;6.00;99.90
12089;DHT22;6107;49.078;8.578;2023-12-20T07:15:35;5.90;99.90
12089;DHT22;6107;49.078;8.578;2023-12-20T07:18:02;5.90;99.90
12089;DHT22;6107;49.078;8.578;2023-12-20T07:20:27;5.90;99.90
12089;DHT22;6107;49.078;8.578;2023-12-20T07:22:53;6.00;99.90
12089;DHT22;6107;49.078;8.578;2023-12-20T07:25:19;5.90;99.90
12089;DHT22;6107;49.078;8.578;2023-12-20T07:27:45;6.00;99.90
12089;DHT22;6107;49.078;8.578;2023-12-20T07:30:11;6.00;99.90
12089;DHT22;6107;49.078;8.578;2023-12-20T07:32:37;5.90;99.90
12089;DHT22;6107;49.078;8.578;2023-12-20T07:35:02;5.90;99.90
12089;DHT22;6107;49.078;8.578;2023-12-20T07:37:28;5.90;99.90
12089;DHT22;6107;49.078;8.578;2023-12-20T07:39:54;5.80;99.90
12089;DHT22;6107;49.078;8.578;2023-12-20T07:42:19;5.90;99.90
12089;DHT22;6107;49.078;8.578;2023-12-20T07:44:45;5.90;99.90
12089;DHT22;6107;49.078;8.578;2023-12-20T07:47:10;5.90;99.90
12089;DHT22;6107;49.078;8.578;2023-12-20T07:49:40;5.80;99.90
12089;DHT22;6107;49.078;8.578;2023-12-20T07:52:06;5.70;99.90
12089;DHT22;6107;49.078;8.578;2023-12-20T07:54:33;5.60;99.90
12089;DHT22;6107;49.078;8.578;2023-12-20T07:56:59;5.70;99.90
12089;DHT22;6107;49.078;8.578;2023-12-20T07:59:24;5.70;99.90
12089;DHT22;6107;49.078;8.578;2023-12-20T08:01:50;5.60;99.90
12089;DHT22;6107;49.078;8.578;2023-12-20T08:04:16;5.60;99.90
12089;DHT22;6107;49.078;8.578;2023-12-20T08:06:41;5.60;99.90
12089;DHT22;6107;49.078;8.578;2023-12-20T08:09:07;5.60;99.90
12089;DHT22;6107;49.078;8.578;2023-12-20T08:11:32;5.60;99.90
12089;DHT22;6107;49.078;8.578;2023-12-20T08:13:58;5.60;99.90
12089;DHT22;6107;49.078;8.578;2023-12-20T08:16:24;5.60;99.90
12089;DHT22;6107;49.078;8.578;2023-12-20T08:18:50;5.60;99.90
12089;DHT22;6107;49.078;8.578;2023-12-20T08:21:16;5.50;99.90
12089;DHT22;6107;49.078;8.578;2023-12-20T08:23:46;5.60;99.90
12089;DHT22;6107;49.078;8.578;2023-12-20T08:26:18;5.70;99.90
12089;DHT22;6107;49.078;8.578;2023-12-20T08:28:43;5.70;99.90
12089;DHT22;6107;49.078;8.578;2023-12-20T08:31:17;5.70;99.90
12089;DHT22;6107;49.078;8.578;2023-12-20T08:33:47;5.70;99.90
12089;DHT22;6107;49.078;8.578;2023-12-20T08:36:13;5.70;99.90
12089;DHT22;6107;49.078;8.578;2023-12-20T08:38:39;5.70;99.90
12089;DHT22;6107;49.078;8.578;2023-12-20T08:41:06;5.70;99.90
12089;DHT22;6107;49.078;8.578;2023-12-20T08:43:34;5.80;99.90
12089;DHT22;6107;49.078;8.578;2023-12-20T08:45:59;5.80;99.90
12089;DHT22;6107;49.078;8.578;2023-12-20T08:48:25;5.80;99.90
12089;DHT22;6107;49.078;8.578;2023-12-20T08:50:51;5.80;99.90
12089;DHT22;6107;49.078;8.578;2023-12-20T08:53:18;5.90;99.90
12089;DHT22;6107;49.078;8.578;2023-12-20T08:55:44;5.90;99.90
12089;DHT22;6107;49.078;8.578;2023-12-20T08:58:10;5.90;99.90
12089;DHT22;6107;49.078;8.578;2023-12-20T09:00:36;6.00;99.90
12089;DHT22;6107;49.078;8.578;2023-12-20T09:03:02;6.00;99.90
12089;DHT22;6107;49.078;8.578;2023-12-20T09:05:28;6.10;99.90
12089;DHT22;6107;49.078;8.578;2023-12-20T09:07:54;6.10;99.90
12089;DHT22;6107;49.078;8.578;2023-12-20T09:10:19;6.20;99.90
12089;DHT22;6107;49.078;8.578;2023-12-20T09:12:51;6.20;99.90
12089;DHT22;6107;49.078;8.578;2023-12-20T09:15:19;6.20;99.90
12089;DHT22;6107;49.078;8.578;2023-12-20T09:17:45;6.40;99.90
12089;DHT22;6107;49.078;8.578;2023-12-20T09:20:10;6.40;99.90
12089;DHT22;6107;49.078;8.578;2023-12-20T09:22:36;6.40;99.90
12089;DHT22;6107;49.078;8.578;2023-12-20T09:25:04;6.50;99.90
12089;DHT22;6107;49.078;8.578;2023-12-20T09:27:30;6.60;99.90
12089;DHT22;6107;49.078;8.578;2023-12-20T09:29:56;6.70;99.90
12089;DHT22;6107;49.078;8.578;2023-12-20T09:32:21;6.90;99.90
12089;DHT22;6107;49.078;8.578;2023-12-20T09:34:47;7.00;99.90
12089;DHT22;6107;49.078;8.578;2023-12-20T09:37:13;7.10;99.90
12089;DHT22;6107;49.078;8.578;2023-12-20T09:39:39;7.10;99.90
12089;DHT22;6107;49.078;8.578;2023-12-20T09:42:06;7.10;99.90
12089;DHT22;6107;49.078;8.578;2023-12-20T09:44:32;7.10;99.90
12089;DHT22;6107;49.078;8.578;2023-12-20T09:47:04;7.10;99.90
12089;DHT22;6107;49.078;8.578;2023-12-20T09:49:31;6.80;99.90
12089;DHT22;6107;49.078;8.578;2023-12-20T09:51:58;6.70;99.90
12089;DHT22;6107;49.078;8.578;2023-12-20T09:54:25;6.50;99.90
12089;DHT22;6107;49.078;8.578;2023-12-20T09:56:52;6.50;99.90
12089;DHT22;6107;49.078;8.578;2023-12-20T09:59:17;6.50;99.90
12089;DHT22;6107;49.078;8.578;2023-12-20T10:01:44;6.50;99.90
12089;DHT22;6107;49.078;8.578;2023-12-20T10:04:10;6.60;99.90
12089;DHT22;6107;49.078;8.578;2023-12-20T10:06:46;6.60;99.90
12089;DHT22;6107;49.078;8.578;2023-12-20T10:09:13;6.50;99.90
12089;DHT22;6107;49.078;8.578;2023-12-20T10:11:40;6.40;99.90
12089;DHT22;6107;49.078;8.578;2023-12-20T10:14:07;6.50;99.90
12089;DHT22;6107;49.078;8.578;2023-12-20T10:16:33;6.50;99.90
12089;DHT22;6107;49.078;8.578;2023-12-20T10:19:00;6.50;99.90
12089;DHT22;6107;49.078;8.578;2023-12-20T10:21:26;6.50;99.90
12089;DHT22;6107;49.078;8.578;2023-12-20T10:23:57;6.60;99.90
12089;DHT22;6107;49.078;8.578;2023-12-20T10:26:27;6.60;99.90
12089;DHT22;6107;49.078;8.578;2023-12-20T10:28:54;6.50;99.90
12089;DHT22;6107;49.078;8.578;2023-12-20T10:31:35;6.50;99.90
12089;DHT22;6107;49.078;8.578;2023-12-20T10:34:02;6.60;99.90
12089;DHT22;6107;49.078;8.578;2023-12-20T10:36:29;6.90;99.90
12089;DHT22;6107;49.078;8.578;2023-12-20T10:38:56;6.60;99.90
12089;DHT22;6107;49.078;8.578;2023-12-20T10:41:27;6.60;99.90
12089;DHT22;6107;49.078;8.578;2023-12-20T10:43:59;6.60;99.90
12089;DHT22;6107;49.078;8.578;2023-12-20T10:46:26;6.70;99.90
12089;DHT22;6107;49.078;8.578;2023-12-20T10:48:54;6.70;99.90
12089;DHT22;6107;49.078;8.578;2023-12-20T10:51:20;6.70;99.90
12089;DHT22;6107;49.078;8.578;2023-12-20T10:53:47;6.70;99.90
12089;DHT22;6107;49.078;8.578;2023-12-20T10:56:19;6.70;99.90
12089;DHT22;6107;49.078;8.578;2023-12-20T10:58:48;6.70;99.90
12089;DHT22;6107;49.078;8.578;2023-12-20T11:01:15;6.60;99.90
12089;DHT22;6107;49.078;8.578;2023-12-20T11:03:53;6.70;99.90
12089;DHT22;6107;49.078;8.578;2023-12-20T11:06:43;6.70;99.90
12089;DHT22;6107;49.078;8.578;2023-12-20T11:09:23;6.90;99.90
12089;DHT22;6107;49.078;8.578;2023-12-20T11:12:04;6.90;99.90
12089;DHT22;6107;49.078;8.578;2023-12-20T11:14:54;6.80;99.90
12089;DHT22;6107;49.078;8.578;2023-12-20T11:17:28;6.70;99.90
12089;DHT22;6107;49.078;8.578;2023-12-20T11:22:26;6.70;99.90
12089;DHT22;6107;49.078;8.578;2023-12-20T11:24:52;6.60;99.90
12089;DHT22;6107;49.078;8.578;2023-12-20T11:27:21;6.70;99.90
12089;DHT22;6107;49.078;8.578;2023-12-20T11:29:56;6.70;99.90
12089;DHT22;6107;49.078;8.578;2023-12-20T11:34:51;6.70;99.90
12089;DHT22;6107;49.078;8.578;2023-12-20T11:37:19;6.70;99.90
12089;DHT22;6107;49.078;8.578;2023-12-20T11:39:45;6.70;99.90
12089;DHT22;6107;49.078;8.578;2023-12-20T11:42:11;6.60;99.90
12089;DHT22;6107;49.078;8.578;2023-12-20T11:44:37;6.60;99.90
12089;DHT22;6107;49.078;8.578;2023-12-20T11:47:03;6.60;99.90
12089;DHT22;6107;49.078;8.578;2023-12-20T11:49:29;6.70;99.90
12089;DHT22;6107;49.078;8.578;2023-12-20T11:51:56;6.70;99.90
12089;DHT22;6107;49.078;8.578;2023-12-20T11:54:22;6.80;99.90
12089;DHT22;6107;49.078;8.578;2023-12-20T11:56:48;6.80;99.90
12089;DHT22;6107;49.078;8.578;2023-12-20T11:59:14;6.80;99.90
12089;DHT22;6107;49.078;8.578;2023-12-20T12:01:40;6.80;99.90
12089;DHT22;6107;49.078;8.578;2023-12-20T12:04:12;6.90;99.90
12089;DHT22;6107;49.078;8.578;2023-12-20T12:06:39;7.00;99.90
12089;DHT22;6107;49.078;8.578;2023-12-20T12:09:05;7.00;99.90
12089;DHT22;6107;49.078;8.578;2023-12-20T12:11:30;6.90;99.90
12089;DHT22;6107;49.078;8.578;2023-12-20T12:13:56;6.90;99.90
12089;DHT22;6107;49.078;8.578;2023-12-20T12:16:22;6.80;99.90
12089;DHT22;6107;49.078;8.578;2023-12-20T12:18:58;6.80;99.90
12089;DHT22;6107;49.078;8.578;2023-12-20T12:21:24;6.80;99.90
12089;DHT22;6107;49.078;8.578;2023-12-20T12:23:50;6.90;99.90
12089;DHT22;6107;49.078;8.578;2023-12-20T12:26:15;6.80;99.90
12089;DHT22;6107;49.078;8.578;2023-12-20T12:28:42;6.80;99.90
12089;DHT22;6107;49.078;8.578;2023-12-20T12:31:08;6.80;99.90
12089;DHT22;6107;49.078;8.578;2023-12-20T12:33:34;6.70;99.90
12089;DHT22;6107;49.078;8.578;2023-12-20T12:36:03;6.60;99.90
12089;DHT22;6107;49.078;8.578;2023-12-20T12:38:31;6.60;99.90
12089;DHT22;6107;49.078;8.578;2023-12-20T12:40:56;6.60;99.90
12089;DHT22;6107;49.078;8.578;2023-12-20T12:43:23;6.50;99.90
12089;DHT22;6107;49.078;8.578;2023-12-20T12:45:48;6.60;99.90
12089;DHT22;6107;49.078;8.578;2023-12-20T12:48:14;6.60;99.90
12089;DHT22;6107;49.078;8.578;2023-12-20T12:50:40;6.70;99.90
12089;DHT22;6107;49.078;8.578;2023-12-20T12:53:06;6.70;99.90
12089;DHT22;6107;49.078;8.578;2023-12-20T12:55:31;8.00;99.90
12089;DHT22;6107;49.078;8.578;2023-12-20T12:57:57;9.40;99.90
12089;DHT22;6107;49.078;8.578;2023-12-20T13:00:23;9.40;99.90
12089;DHT22;6107;49.078;8.578;2023-12-20T13:02:49;7.50;99.90
12089;DHT22;6107;49.078;8.578;2023-12-20T13:05:15;7.50;99.90
12089;DHT22;6107;49.078;8.578;2023-12-20T13:07:41;7.30;99.90
12089;DHT22;6107;49.078;8.578;2023-12-20T13:10:06;7.00;99.90
12089;DHT22;6107;49.078;8.578;2023-12-20T13:12:32;6.80;99.90
12089;DHT22;6107;49.078;8.578;2023-12-20T13:14:58;6.70;99.90
12089;DHT22;6107;49.078;8.578;2023-12-20T13:17:23;6.80;99.90
12089;DHT22;6107;49.078;8.578;2023-12-20T13:19:49;6.70;99.90
12089;DHT22;6107;49.078;8.578;2023-12-20T13:22:15;6.80;99.90
12089;DHT22;6107;49.078;8.578;2023-12-20T13:24:41;6.70;99.90
12089;DHT22;6107;49.078;8.578;2023-12-20T13:27:09;6.70;99.90
12089;DHT22;6107;49.078;8.578;2023-12-20T13:29:35;6.60;99.90
12089;DHT22;6107;49.078;8.578;2023-12-20T13:32:01;6.60;99.90
12089;DHT22;6107;49.078;8.578;2023-12-20T13:34:29;6.70;99.90
12089;DHT22;6107;49.078;8.578;2023-12-20T13:36:54;6.60;99.90
12089;DHT22;6107;49.078;8.578;2023-12-20T13:39:20;6.70;99.90
12089;DHT22;6107;49.078;8.578;2023-12-20T13:41:46;6.60;99.90
12089;DHT22;6107;49.078;8.578;2023-12-20T13:44:13;6.70;99.90
12089;DHT22;6107;49.078;8.578;2023-12-20T13:46:38;6.60;99.90
12089;DHT22;6107;49.078;8.578;2023-12-20T13:49:04;6.60;99.90
12089;DHT22;6107;49.078;8.578;2023-12-20T13:51:30;6.60;99.90
12089;DHT22;6107;49.078;8.578;2023-12-20T13:53:57;6.60;99.90
12089;DHT22;6107;49.078;8.578;2023-12-20T13:56:23;6.60;99.90
12089;DHT22;6107;49.078;8.578;2023-12-20T13:58:49;6.60;99.90
12089;DHT22;6107;49.078;8.578;2023-12-20T14:01:16;6.60;99.90
12089;DHT22;6107;49.078;8.578;2023-12-20T14:03:42;6.60;99.90
12089;DHT22;6107;49.078;8.578;2023-12-20T14:06:07;6.60;99.90
12089;DHT22;6107;49.078;8.578;2023-12-20T14:08:33;6.60;99.90
12089;DHT22;6107;49.078;8.578;2023-12-20T14:10:59;6.60;99.90
12089;DHT22;6107;49.078;8.578;2023-12-20T14:13:26;6.60;99.90
12089;DHT22;6107;49.078;8.578;2023-12-20T14:15:52;6.60;99.90
12089;DHT22;6107;49.078;8.578;2023-12-20T14:18:19;6.80;99.90
12089;DHT22;6107;49.078;8.578;2023-12-20T14:20:45;6.70;99.90
12089;DHT22;6107;49.078;8.578;2023-12-20T14:23:12;6.60;99.90
12089;DHT22;6107;49.078;8.578;2023-12-20T14:25:41;7.10;99.90
12089;DHT22;6107;49.078;8.578;2023-12-20T14:28:06;6.70;99.90
12089;DHT22;6107;49.078;8.578;2023-12-20T14:30:32;6.50;99.90
12089;DHT22;6107;49.078;8.578;2023-12-20T14:32:58;6.50;99.90
12089;DHT22;6107;49.078;8.578;2023-12-20T14:35:23;6.50;99.90
12089;DHT22;6107;49.078;8.578;2023-12-20T14:37:49;6.40;99.90
12089;DHT22;6107;49.078;8.578;2023-12-20T14:40:15;6.50;99.90
12089;DHT22;6107;49.078;8.578;2023-12-20T14:42:45;6.40;99.90
12089;DHT22;6107;49.078;8.578;2023-12-20T14:45:11;6.70;99.90
12089;DHT22;6107;49.078;8.578;2023-12-20T14:47:38;6.50;99.90
12089;DHT22;6107;49.078;8.578;2023-12-20T14:50:05;6.40;99.90
12089;DHT22;6107;49.078;8.578;2023-12-20T14:55:00;6.30;99.90
12089;DHT22;6107;49.078;8.578;2023-12-20T14:57:25;6.40;99.90
12089;DHT22;6107;49.078;8.578;2023-12-20T14:59:52;6.30;99.90
12089;DHT22;6107;49.078;8.578;2023-12-20T15:02:17;6.30;99.90
12089;DHT22;6107;49.078;8.578;2023-12-20T15:04:43;6.30;99.90
12089;DHT22;6107;49.078;8.578;2023-12-20T15:07:08;6.30;99.90
12089;DHT22;6107;49.078;8.578;2023-12-20T15:09:34;6.20;99.90
12089;DHT22;6107;49.078;8.578;2023-12-20T15:12:00;6.30;99.90
12089;DHT22;6107;49.078;8.578;2023-12-20T15:14:26;6.10;99.90
12089;DHT22;6107;49.078;8.578;2023-12-20T15:16:52;6.20;99.90
12089;DHT22;6107;49.078;8.578;2023-12-20T15:19:17;6.20;99.90
12089;DHT22;6107;49.078;8.578;2023-12-20T15:21:43;6.20;99.90
12089;DHT22;6107;49.078;8.578;2023-12-20T15:24:09;6.20;99.90
12089;DHT22;6107;49.078;8.578;2023-12-20T15:26:43;6.20;99.90
12089;DHT22;6107;49.078;8.578;2023-12-20T15:29:09;6.20;99.90
12089;DHT22;6107;49.078;8.578;2023-12-20T15:31:37;6.20;99.90
12089;DHT22;6107;49.078;8.578;2023-12-20T15:34:07;6.20;99.90
12089;DHT22;6107;49.078;8.578;2023-12-20T15:36:32;6.20;99.90
12089;DHT22;6107;49.078;8.578;2023-12-20T15:38:58;6.30;99.90
12089;DHT22;6107;49.078;8.578;2023-12-20T15:41:23;6.30;99.90
12089;DHT22;6107;49.078;8.578;2023-12-20T15:43:49;6.30;99.90
12089;DHT22;6107;49.078;8.578;2023-12-20T15:46:15;6.30;99.90
12089;DHT22;6107;49.078;8.578;2023-12-20T15:48:41;6.40;99.90
12089;DHT22;6107;49.078;8.578;2023-12-20T15:51:08;6.40;99.90
12089;DHT22;6107;49.078;8.578;2023-12-20T15:53:34;6.40;99.90
12089;DHT22;6107;49.078;8.578;2023-12-20T15:56:01;6.40;99.90
12089;DHT22;6107;49.078;8.578;2023-12-20T15:58:27;6.50;99.90
12089;DHT22;6107;49.078;8.578;2023-12-20T16:00:53;6.50;99.90
12089;DHT22;6107;49.078;8.578;2023-12-20T16:03:19;6.50;99.90